createdAt,value
2022-08-29T00:00:49.624Z,17.79
2022-08-29T00:03:18.406Z,17.72
2022-08-29T00:05:46.610Z,17.75
2022-08-29T00:08:18.030Z,17.72
2022-08-29T00:10:45.328Z,17.76
2022-08-29T00:13:13.935Z,17.74
2022-08-29T00:15:45.011Z,17.73
2022-08-29T00:18:15.097Z,17.73
2022-08-29T00:20:42.521Z,17.77
2022-08-29T00:23:10.273Z,17.79
2022-08-29T00:25:39.423Z,17.77
2022-08-29T00:28:07.244Z,17.77
2022-08-29T00:30:35.528Z,17.75
2022-08-29T00:33:03.235Z,17.77
2022-08-29T00:35:34.088Z,17.79
2022-08-29T00:38:03.270Z,17.77
2022-08-29T00:40:39.926Z,17.79
2022-08-29T00:43:07.590Z,17.85
2022-08-29T00:45:36.647Z,17.84
2022-08-29T00:48:15.934Z,17.91
2022-08-29T00:50:49.571Z,17.89
2022-08-29T00:53:18.563Z,17.83
2022-08-29T00:55:50.255Z,17.89
2022-08-29T00:58:42.021Z,17.94
2022-08-29T01:01:09.046Z,17.96
2022-08-29T01:03:41.048Z,17.97
2022-08-29T01:06:11.333Z,17.99
2022-08-29T01:08:38.125Z,17.91
2022-08-29T01:11:24.102Z,17.78
2022-08-29T01:13:51.774Z,17.85
2022-08-29T01:16:20.704Z,17.82
2022-08-29T01:18:50.957Z,17.80
2022-08-29T01:21:36.514Z,17.76
2022-08-29T01:24:15.540Z,17.68
2022-08-29T01:26:47.302Z,17.69
2022-08-29T01:29:15.539Z,17.73
2022-08-29T01:31:56.985Z,17.73
2022-08-29T01:34:26.642Z,17.75
2022-08-29T01:36:59.371Z,17.75
2022-08-29T01:39:32.392Z,17.62
2022-08-29T01:42:02.555Z,17.58
2022-08-29T01:44:30.714Z,17.56
2022-08-29T01:47:02.720Z,17.59
2022-08-29T01:49:32.279Z,17.52
2022-08-29T01:51:59.733Z,17.55
2022-08-29T01:54:26.798Z,17.46
2022-08-29T01:56:56.451Z,17.40
2022-08-29T01:59:27.185Z,17.35
2022-08-29T02:02:04.267Z,17.28
2022-08-29T02:04:31.904Z,17.23
2022-08-29T02:06:58.982Z,17.30
2022-08-29T02:09:27.416Z,17.37
2022-08-29T02:11:56.191Z,17.40
2022-08-29T02:14:23.647Z,17.44
2022-08-29T02:16:50.994Z,17.47
2022-08-29T02:19:18.238Z,17.46
2022-08-29T02:21:45.227Z,17.49
2022-08-29T02:24:24.915Z,17.50
2022-08-29T02:26:54.693Z,17.50
2022-08-29T02:29:21.764Z,17.52
2022-08-29T02:31:49.107Z,17.47
2022-08-29T02:34:16.687Z,17.54
2022-08-29T02:36:44.002Z,17.60
2022-08-29T02:39:12.407Z,17.61
2022-08-29T02:41:39.472Z,17.65
2022-08-29T02:44:09.156Z,17.70
2022-08-29T02:46:37.030Z,17.76
2022-08-29T02:49:04.144Z,17.70
2022-08-29T02:51:32.602Z,17.83
2022-08-29T02:53:59.937Z,17.87
2022-08-29T02:56:27.720Z,17.87
2022-08-29T02:58:54.558Z,17.84
2022-08-29T03:01:23.993Z,17.91
2022-08-29T03:03:52.533Z,17.89
2022-08-29T03:06:20.999Z,17.83
2022-08-29T03:08:47.942Z,17.81
2022-08-29T03:11:16.052Z,17.83
2022-08-29T03:13:44.496Z,17.78
2022-08-29T03:16:12.496Z,17.79
2022-08-29T03:18:39.599Z,17.82
2022-08-29T03:21:14.862Z,17.84
2022-08-29T03:23:41.674Z,17.78
2022-08-29T03:26:08.367Z,17.73
2022-08-29T03:28:35.126Z,17.65
2022-08-29T03:31:02.029Z,17.64
2022-08-29T03:33:28.790Z,17.58
2022-08-29T03:35:55.441Z,17.67
2022-08-29T03:38:22.748Z,17.58
2022-08-29T03:40:49.586Z,17.50
2022-08-29T03:43:16.368Z,17.55
2022-08-29T03:45:43.177Z,17.59
2022-08-29T03:48:10.184Z,17.59
2022-08-29T03:50:36.871Z,17.60
2022-08-29T03:53:03.841Z,17.62
2022-08-29T03:55:30.586Z,17.51
2022-08-29T03:57:57.508Z,17.60
2022-08-29T04:00:24.809Z,17.65
2022-08-29T04:02:53.892Z,17.53
2022-08-29T04:05:21.117Z,17.48
2022-08-29T04:07:55.541Z,17.47
2022-08-29T04:10:34.593Z,17.29
2022-08-29T04:13:02.335Z,17.39
2022-08-29T04:15:30.542Z,17.36
2022-08-29T04:17:59.991Z,17.39
2022-08-29T04:20:32.883Z,17.43
2022-08-29T04:22:59.871Z,17.37
2022-08-29T04:25:28.668Z,17.44
2022-08-29T04:27:56.289Z,17.40
2022-08-29T04:30:25.261Z,17.38
2022-08-29T04:32:52.151Z,17.47
2022-08-29T04:35:19.533Z,17.44
2022-08-29T04:37:46.360Z,17.41
2022-08-29T04:40:17.562Z,17.47
2022-08-29T04:42:44.711Z,17.44
2022-08-29T04:45:15.319Z,17.45
2022-08-29T04:47:42.764Z,17.46
2022-08-29T04:50:12.672Z,17.49
2022-08-29T04:52:40.614Z,17.40
2022-08-29T04:55:09.113Z,17.50
2022-08-29T04:57:38.179Z,17.50
2022-08-29T05:00:11.758Z,17.49
2022-08-29T05:02:40.046Z,17.49
2022-08-29T05:05:08.273Z,17.47
2022-08-29T05:07:35.322Z,17.55
2022-08-29T05:10:09.368Z,17.55
2022-08-29T05:12:37.630Z,17.59
2022-08-29T05:15:06.398Z,17.48
2022-08-29T05:17:33.739Z,17.40
2022-08-29T05:20:01.029Z,17.39
2022-08-29T05:22:27.935Z,17.44
2022-08-29T05:24:57.056Z,17.47
2022-08-29T05:27:24.114Z,17.40
2022-08-29T05:29:51.939Z,17.48
2022-08-29T05:32:19.638Z,17.39
2022-08-29T05:34:47.512Z,17.49
2022-08-29T05:37:19.264Z,17.52
2022-08-29T05:39:47.488Z,17.34
2022-08-29T05:42:16.999Z,17.43
2022-08-29T05:44:44.418Z,17.43
2022-08-29T05:47:13.411Z,17.54
2022-08-29T05:49:41.982Z,17.63
2022-08-29T05:52:09.453Z,17.75
2022-08-29T05:54:39.622Z,17.89
2022-08-29T05:57:07.268Z,17.91
2022-08-29T05:59:35.334Z,17.84
2022-08-29T06:02:02.495Z,17.84
2022-08-29T06:04:29.454Z,17.88
2022-08-29T06:06:56.243Z,17.89
2022-08-29T06:09:23.056Z,17.96
2022-08-29T06:11:51.788Z,17.95
2022-08-29T06:14:19.760Z,17.91
2022-08-29T06:16:46.614Z,17.91
2022-08-29T06:19:13.746Z,17.90
2022-08-29T06:21:40.533Z,17.93
2022-08-29T06:24:07.779Z,18.03
2022-08-29T06:26:34.903Z,17.99
2022-08-29T06:29:06.360Z,18.08
2022-08-29T06:31:33.525Z,18.06
2022-08-29T06:34:02.988Z,18.02
2022-08-29T06:36:30.193Z,18.00
2022-08-29T06:39:02.372Z,18.08
2022-08-29T06:41:29.973Z,18.10
2022-08-29T06:43:57.216Z,18.04
2022-08-29T06:46:30.736Z,18.20
2022-08-29T06:48:58.886Z,18.12
2022-08-29T06:51:26.787Z,18.32
2022-08-29T06:53:53.712Z,18.36
2022-08-29T06:56:20.553Z,18.38
2022-08-29T06:58:47.384Z,18.52
2022-08-29T07:01:16.813Z,18.49
2022-08-29T07:03:43.814Z,18.64
2022-08-29T07:06:10.930Z,18.61
2022-08-29T07:08:43.676Z,18.67
2022-08-29T07:11:22.539Z,18.52
2022-08-29T07:13:49.356Z,18.57
2022-08-29T07:16:18.698Z,18.56
2022-08-29T07:18:46.851Z,18.65
2022-08-29T07:21:20.346Z,18.59
2022-08-29T07:23:48.930Z,18.56
2022-08-29T07:26:30.863Z,18.64
2022-08-29T07:29:03.263Z,18.72
2022-08-29T07:31:31.417Z,18.59
2022-08-29T07:34:02.914Z,18.66
2022-08-29T07:36:34.210Z,18.51
2022-08-29T07:39:04.823Z,18.64
2022-08-29T07:41:31.746Z,18.79
2022-08-29T07:43:58.555Z,19.20
2022-08-29T07:46:26.912Z,19.26
2022-08-29T07:48:53.866Z,19.63
2022-08-29T07:51:23.112Z,19.80
2022-08-29T07:53:51.298Z,19.53
2022-08-29T07:56:25.634Z,19.60
2022-08-29T07:58:54.042Z,19.67
2022-08-29T08:01:21.937Z,19.54
2022-08-29T08:03:50.862Z,19.50
2022-08-29T08:06:19.821Z,19.55
2022-08-29T08:08:47.742Z,19.47
2022-08-29T08:11:14.807Z,19.52
2022-08-29T08:13:41.862Z,19.35
2022-08-29T08:16:12.132Z,19.38
2022-08-29T08:18:40.110Z,19.31
2022-08-29T08:21:07.228Z,19.47
2022-08-29T08:23:34.429Z,19.59
2022-08-29T08:26:01.829Z,19.74
2022-08-29T08:28:30.480Z,19.62
2022-08-29T08:31:03.597Z,19.59
2022-08-29T08:33:34.970Z,19.87
2022-08-29T08:36:03.209Z,19.75
2022-08-29T08:38:31.105Z,19.67
2022-08-29T08:41:07.048Z,19.48
2022-08-29T08:43:51.874Z,19.82
2022-08-29T08:46:36.359Z,19.63
2022-08-29T08:49:09.032Z,20.15
2022-08-29T08:51:40.356Z,20.28
2022-08-29T08:54:16.247Z,19.95
2022-08-29T08:56:46.806Z,20.39
2022-08-29T08:59:22.784Z,20.11
2022-08-29T09:02:27.560Z,20.56
2022-08-29T09:04:57.877Z,21.09
2022-08-29T09:07:46.591Z,21.19
2022-08-29T09:10:40.842Z,21.14
2022-08-29T09:13:41.547Z,20.65
2022-08-29T09:16:19.793Z,20.66
2022-08-29T09:18:53.932Z,21.05
2022-08-29T09:24:24.174Z,21.07
2022-08-29T09:26:50.904Z,21.55
2022-08-29T09:29:21.204Z,21.58
2022-08-29T09:32:09.097Z,21.48
2022-08-29T09:35:07.368Z,21.32
2022-08-29T09:37:32.700Z,20.81
2022-08-29T09:40:16.567Z,20.76
2022-08-29T09:42:59.768Z,20.89
2022-08-29T09:45:27.258Z,21.22
2022-08-29T09:48:15.769Z,20.96
2022-08-29T09:50:42.919Z,20.77
2022-08-29T09:53:11.664Z,20.72
2022-08-29T09:55:52.408Z,20.68
2022-08-29T09:58:22.368Z,20.79
2022-08-29T10:01:10.376Z,20.64
2022-08-29T10:03:51.820Z,20.73
2022-08-29T10:06:24.587Z,20.78
2022-08-29T10:09:23.943Z,20.27
2022-08-29T10:11:57.190Z,20.47
2022-08-29T10:14:30.691Z,20.31
2022-08-29T10:17:22.589Z,20.60
2022-08-29T10:19:50.673Z,20.64
2022-08-29T10:22:33.264Z,20.88
2022-08-29T10:25:13.555Z,20.81
2022-08-29T10:28:09.802Z,20.62
2022-08-29T10:30:57.069Z,20.41
2022-08-29T10:33:54.905Z,19.85
2022-08-29T10:36:29.627Z,19.77
2022-08-29T10:39:02.450Z,19.91
2022-08-29T10:41:50.374Z,19.84
2022-08-29T10:44:32.626Z,19.94
2022-08-29T10:47:19.569Z,19.83
2022-08-29T10:50:12.868Z,19.62
2022-08-29T10:53:11.775Z,19.41
2022-08-29T10:55:55.105Z,19.51
2022-08-29T10:58:49.563Z,19.56
2022-08-29T11:01:29.607Z,19.91
2022-08-29T11:04:23.770Z,19.97
2022-08-29T11:07:11.117Z,20.48
2022-08-29T11:10:02.647Z,20.50
2022-08-29T11:12:47.596Z,20.26
2022-08-29T11:15:26.374Z,20.71
2022-08-29T11:18:22.320Z,20.55
2022-08-29T11:20:56.596Z,20.14
2022-08-29T11:23:46.822Z,20.44
2022-08-29T11:26:22.627Z,20.47
2022-08-29T11:29:04.600Z,20.53
2022-08-29T11:31:40.458Z,20.48
2022-08-29T11:34:44.876Z,20.84
2022-08-29T11:37:29.779Z,20.57
2022-08-29T11:40:02.803Z,20.78
2022-08-29T11:42:50.663Z,20.71
2022-08-29T11:45:29.672Z,20.44
2022-08-29T11:48:22.284Z,20.57
2022-08-29T11:50:49.445Z,20.58
2022-08-29T11:53:35.879Z,20.76
2022-08-29T11:56:15.644Z,20.70
2022-08-29T11:58:46.230Z,20.63
2022-08-29T12:01:35.862Z,20.80
2022-08-29T12:04:05.227Z,20.45
2022-08-29T12:06:50.787Z,20.36
2022-08-29T12:09:26.988Z,20.27
2022-08-29T12:12:12.691Z,19.73
2022-08-29T12:14:47.244Z,19.72
2022-08-29T12:17:17.029Z,19.39
2022-08-29T12:19:56.224Z,19.60
2022-08-29T12:22:47.890Z,19.39
2022-08-29T12:25:33.633Z,19.44
2022-08-29T12:28:20.479Z,19.33
2022-08-29T12:30:57.615Z,19.18
2022-08-29T12:33:48.379Z,19.29
2022-08-29T12:36:32.060Z,19.33
2022-08-29T12:39:27.153Z,19.25
2022-08-29T12:42:34.480Z,19.53
2022-08-29T12:45:17.500Z,19.57
2022-08-29T12:47:49.188Z,19.60
2022-08-29T12:50:26.791Z,19.44
2022-08-29T12:53:16.261Z,19.51
2022-08-29T12:55:46.377Z,19.57
2022-08-29T12:58:35.138Z,19.50
2022-08-29T13:01:04.981Z,19.60
2022-08-29T13:03:32.048Z,19.70
2022-08-29T13:06:08.814Z,19.38
2022-08-29T13:08:37.247Z,19.46
2022-08-29T13:11:10.316Z,19.67
2022-08-29T13:13:38.399Z,19.62
2022-08-29T13:16:08.674Z,19.51
2022-08-29T13:18:49.125Z,19.46
2022-08-29T13:21:31.945Z,19.61
2022-08-29T13:24:10.676Z,19.58
2022-08-29T13:26:43.035Z,19.38
2022-08-29T13:29:32.658Z,19.21
2022-08-29T13:32:24.207Z,19.03
2022-08-29T13:35:03.016Z,19.08
2022-08-29T13:37:36.563Z,18.87
2022-08-29T13:40:58.826Z,18.86
2022-08-29T13:43:30.613Z,18.79
2022-08-29T13:46:27.222Z,18.47
2022-08-29T13:49:02.971Z,18.56
2022-08-29T13:51:29.664Z,18.84
2022-08-29T13:53:56.859Z,19.03
2022-08-29T13:56:32.662Z,19.13
2022-08-29T13:59:00.150Z,19.79
2022-08-29T14:01:30.820Z,19.76
2022-08-29T14:04:36.895Z,19.81
2022-08-29T14:07:01.362Z,19.99
2022-08-29T14:09:35.454Z,19.54
2022-08-29T14:12:03.060Z,19.65
2022-08-29T14:14:29.894Z,19.74
2022-08-29T14:16:57.213Z,19.53
2022-08-29T14:19:24.919Z,19.10
2022-08-29T14:21:51.729Z,19.01
2022-08-29T14:24:18.455Z,19.06
2022-08-29T14:26:45.306Z,19.11
2022-08-29T14:29:12.206Z,18.69
2022-08-29T14:31:38.977Z,18.58
2022-08-29T14:34:06.009Z,18.53
2022-08-29T14:36:33.643Z,18.64
2022-08-29T14:39:01.305Z,18.61
2022-08-29T14:41:28.030Z,18.57
2022-08-29T14:43:54.817Z,18.36
2022-08-29T14:46:21.867Z,18.44
2022-08-29T14:48:48.706Z,18.68
2022-08-29T14:51:15.620Z,18.67
2022-08-29T14:53:53.895Z,18.59
2022-08-29T14:56:47.608Z,18.58
2022-08-29T14:59:17.043Z,18.62
2022-08-29T15:01:44.075Z,18.50
2022-08-29T15:04:11.141Z,18.38
2022-08-29T15:06:40.144Z,18.33
2022-08-29T15:09:14.244Z,18.36
2022-08-29T15:11:41.059Z,18.33
2022-08-29T15:14:08.929Z,18.32
2022-08-29T15:16:36.748Z,18.38
2022-08-29T15:21:52.340Z,17.99
2022-08-29T15:24:19.110Z,18.07
2022-08-29T15:26:45.983Z,18.02
2022-08-29T15:29:13.100Z,17.96
2022-08-29T15:31:40.185Z,18.03
2022-08-29T15:34:07.421Z,17.96
2022-08-29T15:36:35.964Z,17.95
2022-08-29T15:39:05.712Z,17.94
2022-08-29T15:41:33.710Z,17.92
2022-08-29T15:44:03.634Z,17.92
2022-08-29T15:46:30.394Z,17.88
2022-08-29T15:48:57.543Z,17.88
2022-08-29T15:51:24.292Z,17.90
2022-08-29T15:53:51.346Z,17.91
2022-08-29T15:56:18.220Z,17.87
2022-08-29T15:58:45.504Z,17.83
2022-08-29T16:01:12.282Z,17.91
2022-08-29T16:03:39.251Z,17.84
2022-08-29T16:06:06.299Z,17.97
2022-08-29T16:08:33.131Z,18.03
2022-08-29T16:11:00.886Z,18.07
2022-08-29T16:13:27.738Z,17.82
2022-08-29T16:15:54.896Z,17.76
2022-08-29T16:18:22.083Z,17.75
2022-08-29T16:20:49.084Z,17.66
2022-08-29T16:23:16.963Z,17.65
2022-08-29T16:25:44.905Z,17.54
2022-08-29T16:28:11.963Z,17.50
2022-08-29T16:30:44.152Z,17.56
2022-08-29T16:33:13.194Z,17.68
2022-08-29T16:35:39.889Z,17.62
2022-08-29T16:38:06.603Z,17.58
2022-08-29T16:40:33.582Z,17.52
2022-08-29T16:43:02.224Z,17.50
2022-08-29T16:45:29.728Z,17.50
2022-08-29T16:47:57.733Z,17.54
2022-08-29T16:50:24.895Z,17.67
2022-08-29T16:52:51.733Z,17.61
2022-08-29T16:55:18.792Z,17.61
2022-08-29T16:58:06.083Z,17.56
2022-08-29T17:00:33.732Z,17.49
2022-08-29T17:03:00.864Z,17.46
2022-08-29T17:05:27.757Z,17.44
2022-08-29T17:07:54.532Z,17.47
2022-08-29T17:10:21.330Z,17.45
2022-08-29T17:12:48.072Z,17.48
2022-08-29T17:15:14.910Z,17.49
2022-08-29T17:17:41.800Z,17.46
2022-08-29T17:20:11.520Z,17.37
2022-08-29T17:22:39.172Z,17.37
2022-08-29T17:25:06.444Z,17.33
2022-08-29T17:27:33.359Z,17.37
2022-08-29T17:30:00.222Z,17.37
2022-08-29T17:32:26.993Z,17.36
2022-08-29T17:34:53.757Z,17.38
2022-08-29T17:37:20.469Z,17.38
2022-08-29T17:39:47.430Z,17.36
2022-08-29T17:42:14.336Z,17.32
2022-08-29T17:44:41.346Z,17.34
2022-08-29T17:47:08.054Z,17.28
2022-08-29T17:49:34.912Z,17.32
2022-08-29T17:52:02.266Z,17.25
2022-08-29T17:54:28.954Z,17.28
2022-08-29T17:56:59.124Z,17.32
2022-08-29T17:59:28.795Z,17.35
2022-08-29T18:01:56.916Z,17.32
2022-08-29T18:04:24.293Z,17.28
2022-08-29T18:06:51.990Z,17.28
2022-08-29T18:09:19.539Z,17.31
2022-08-29T18:11:49.501Z,17.28
2022-08-29T18:14:17.995Z,17.26
2022-08-29T18:16:44.963Z,17.29
2022-08-29T18:19:13.465Z,17.28
2022-08-29T18:21:41.435Z,17.23
2022-08-29T18:24:13.818Z,17.23
2022-08-29T18:26:46.111Z,17.19
2022-08-29T18:29:13.405Z,17.19
2022-08-29T18:31:41.720Z,17.17
2022-08-29T18:34:11.092Z,17.19
2022-08-29T18:36:41.199Z,17.22
2022-08-29T18:39:11.726Z,17.23
2022-08-29T18:41:39.002Z,17.22
2022-08-29T18:44:06.212Z,17.18
2022-08-29T18:46:33.453Z,17.15
2022-08-29T18:49:00.478Z,17.11
2022-08-29T18:51:27.734Z,17.07
2022-08-29T18:53:54.895Z,17.11
2022-08-29T18:56:21.593Z,17.15
2022-08-29T18:58:48.373Z,17.15
2022-08-29T19:01:28.045Z,17.08
2022-08-29T19:03:57.732Z,17.09
2022-08-29T19:06:27.328Z,17.09
2022-08-29T19:08:56.497Z,17.10
2022-08-29T19:11:26.139Z,17.11
2022-08-29T19:13:53.989Z,17.16
2022-08-29T19:16:25.196Z,17.09
2022-08-29T19:18:52.613Z,17.13
2022-08-29T19:21:19.694Z,17.10
2022-08-29T19:23:52.045Z,17.09
2022-08-29T19:26:28.569Z,17.14
2022-08-29T19:28:59.814Z,17.09
2022-08-29T19:31:27.760Z,17.05
2022-08-29T19:33:55.182Z,17.07
2022-08-29T19:36:23.283Z,17.03
2022-08-29T19:38:50.362Z,17.03
2022-08-29T19:41:17.755Z,17.05
2022-08-29T19:43:45.392Z,17.07
2022-08-29T19:46:19.962Z,17.13
2022-08-29T19:48:51.259Z,17.19
2022-08-29T19:51:21.148Z,17.10
2022-08-29T19:53:48.554Z,17.11
2022-08-29T19:56:16.893Z,17.11
2022-08-29T19:58:44.167Z,17.05
2022-08-29T20:01:11.247Z,17.05
2022-08-29T20:03:40.098Z,17.00
2022-08-29T20:06:08.010Z,17.01
2022-08-29T20:08:36.398Z,17.05
2022-08-29T20:11:04.364Z,17.04
2022-08-29T20:13:35.739Z,17.02
2022-08-29T20:16:09.235Z,17.00
2022-08-29T20:18:36.286Z,17.00
2022-08-29T20:21:03.075Z,16.99
2022-08-29T20:23:31.575Z,16.93
2022-08-29T20:26:01.558Z,16.95
2022-08-29T20:28:30.592Z,16.96
2022-08-29T20:30:57.787Z,16.94
2022-08-29T20:33:25.500Z,16.95
2022-08-29T20:36:11.793Z,16.96
2022-08-29T20:38:38.578Z,16.99
2022-08-29T20:41:05.543Z,16.98
2022-08-29T20:43:32.350Z,16.95
2022-08-29T20:45:59.974Z,16.95
2022-08-29T20:48:31.446Z,16.94
2022-08-29T20:51:04.835Z,16.95
2022-08-29T20:53:33.076Z,16.96
2022-08-29T20:56:01.286Z,16.94
2022-08-29T20:58:29.454Z,17.04
2022-08-29T21:00:58.190Z,16.93
2022-08-29T21:03:44.043Z,16.89
2022-08-29T21:06:12.013Z,16.90
2022-08-29T21:08:40.952Z,16.86
2022-08-29T21:11:07.960Z,16.86
2022-08-29T21:13:34.726Z,16.85
2022-08-29T21:16:04.634Z,16.85
2022-08-29T21:18:31.630Z,16.87
2022-08-29T21:20:58.389Z,16.87
2022-08-29T21:23:25.667Z,16.87
2022-08-29T21:25:54.942Z,16.85
2022-08-29T21:28:22.750Z,16.88
2022-08-29T21:30:49.603Z,16.88
2022-08-29T21:33:16.855Z,16.81
2022-08-29T21:35:44.212Z,16.77
2022-08-29T21:38:11.230Z,16.74
2022-08-29T21:40:50.086Z,16.76
2022-08-29T21:43:21.317Z,16.81
2022-08-29T21:45:48.733Z,16.84
2022-08-29T21:48:16.127Z,16.81
2022-08-29T21:50:43.213Z,16.81
2022-08-29T21:53:14.888Z,16.81
2022-08-29T21:55:42.066Z,16.79
2022-08-29T21:58:09.322Z,16.81
2022-08-29T22:00:37.175Z,16.84
2022-08-29T22:03:06.423Z,16.88
2022-08-29T22:05:33.701Z,16.86
2022-08-29T22:08:03.152Z,16.80
2022-08-29T22:10:34.054Z,16.81
2022-08-29T22:13:02.136Z,16.78
2022-08-29T22:15:47.946Z,16.77
2022-08-29T22:18:15.261Z,16.77
2022-08-29T22:20:43.835Z,16.79
2022-08-29T22:23:11.121Z,16.87
2022-08-29T22:25:38.385Z,16.82
2022-08-29T22:28:05.901Z,16.84
2022-08-29T22:30:33.287Z,16.80
2022-08-29T22:33:01.288Z,16.77
2022-08-29T22:35:28.904Z,16.77
2022-08-29T22:37:55.785Z,16.81
2022-08-29T22:40:23.530Z,16.81
2022-08-29T22:42:50.506Z,16.81
2022-08-29T22:45:18.559Z,16.82
2022-08-29T22:47:46.744Z,16.79
2022-08-29T22:50:17.684Z,16.76
2022-08-29T22:52:45.365Z,16.82
2022-08-29T22:55:14.775Z,16.81
2022-08-29T22:57:45.384Z,16.79
2022-08-29T23:00:17.054Z,16.79
2022-08-29T23:02:43.859Z,16.75
2022-08-29T23:05:10.884Z,16.82
2022-08-29T23:07:38.189Z,16.79
2022-08-29T23:10:07.571Z,16.80
2022-08-29T23:12:36.159Z,16.79
2022-08-29T23:15:14.568Z,16.78
2022-08-29T23:17:41.740Z,16.78
2022-08-29T23:20:11.502Z,16.82
2022-08-29T23:22:39.212Z,16.81
2022-08-29T23:25:09.983Z,16.85
2022-08-29T23:27:36.986Z,16.82
2022-08-29T23:30:05.856Z,16.84
2022-08-29T23:32:32.642Z,16.87
2022-08-29T23:34:59.439Z,16.85
2022-08-29T23:37:26.269Z,16.87
2022-08-29T23:39:53.434Z,16.81
2022-08-29T23:42:20.607Z,16.88
2022-08-29T23:44:48.385Z,16.86
2022-08-29T23:47:16.245Z,16.93
2022-08-29T23:49:43.432Z,16.87
2022-08-29T23:52:10.470Z,16.91
2022-08-29T23:54:37.349Z,16.95
2022-08-29T23:57:04.647Z,16.92
2022-08-29T23:59:52.044Z,16.90
